EWG1DB LJLJ-EDDP
Flight info
| Callsign | EWG1DB |
|---|---|
| Flight time | 1h 6m |
| Altitude | 38000 |
| Route | GIMIX DCT SIMBA DCT MOOCE L604 EKSOS Y103 LONLI M726 LASGA T953 VOCIM T954 GOXLI GOXLI1V |
| Aircraft | A319/M-SDE3FGHIRWY/LB1 |
Departure
| Time | 2026-04-22 17:24 |
|---|---|
| Airport | Ljubljana Jože Pučnik Airport (LJLJ) |
Arrival
| Time | 2026-04-22 18:30 |
|---|---|
| Airport | Leipzig/Halle Airport (EDDP) |
| Time | Latitude | Longitude | Altitude | Speed | Heading |
|---|---|---|---|---|---|
| 2026-04-22 17:15 | 46.22884 | 14.45455 | 1259 ft | 0 kts | 72° |
| 2026-04-22 17:19 | 46.22906 | 14.45392 | 1260 ft | 11 kts | 232° |
| 2026-04-22 17:19 | 46.22895 | 14.45193 | 1261 ft | 11 kts | 304° |
| 2026-04-22 17:20 | 46.22973 | 14.45035 | 1265 ft | 8 kts | 307° |
| 2026-04-22 17:20 | 46.23032 | 14.44922 | 1268 ft | 6 kts | 306° |
| 2026-04-22 17:21 | 46.23069 | 14.44847 | 1270 ft | 11 kts | 303° |
| 2026-04-22 17:21 | 46.23196 | 14.44609 | 1275 ft | 15 kts | 306° |
| 2026-04-22 17:22 | 46.23264 | 14.44474 | 1278 ft | 13 kts | 306° |
| 2026-04-22 17:22 | 46.23315 | 14.44373 | 1280 ft | 11 kts | 306° |
| 2026-04-22 17:22 | 46.23394 | 14.44198 | 1283 ft | 9 kts | 288° |
| 2026-04-22 17:23 | 46.23376 | 14.44113 | 1283 ft | 10 kts | 218° |
| 2026-04-22 17:23 | 46.23216 | 14.44128 | 1279 ft | 18 kts | 135° |
| 2026-04-22 17:23 | 46.22979 | 14.44572 | 1269 ft | 93 kts | 126° |
| 2026-04-22 17:24 | 46.22462 | 14.45588 | 1247 ft | 156 kts | 127° |
| 2026-04-22 17:24 | 46.21784 | 14.46888 | 1824 ft | 162 kts | 128° |
| 2026-04-22 17:24 | 46.21137 | 14.48106 | 2674 ft | 151 kts | 125° |
| 2026-04-22 17:24 | 46.20449 | 14.49187 | 3295 ft | 153 kts | 143° |
| 2026-04-22 17:25 | 46.19370 | 14.49605 | 3695 ft | 175 kts | 179° |
| 2026-04-22 17:25 | 46.18174 | 14.48991 | 4098 ft | 196 kts | 217° |
| 2026-04-22 17:25 | 46.17397 | 14.47293 | 4468 ft | 216 kts | 261° |
| 2026-04-22 17:25 | 46.17589 | 14.45165 | 4922 ft | 225 kts | 304° |
| 2026-04-22 17:26 | 46.18741 | 14.43692 | 5456 ft | 231 kts | 343° |
| 2026-04-22 17:26 | 46.20356 | 14.43613 | 6014 ft | 242 kts | 18° |
| 2026-04-22 17:26 | 46.21926 | 14.44574 | 6699 ft | 255 kts | 21° |
| 2026-04-22 17:26 | 46.23663 | 14.44905 | 7604 ft | 262 kts | 350° |
| 2026-04-22 17:27 | 46.24788 | 14.44243 | 8290 ft | 267 kts | 328° |
| 2026-04-22 17:27 | 46.26131 | 14.41296 | 9627 ft | 281 kts | 288° |
| 2026-04-22 17:27 | 46.26500 | 14.38545 | 10557 ft | 284 kts | 288° |
| 2026-04-22 17:27 | 46.27054 | 14.35750 | 11100 ft | 297 kts | 294° |
| 2026-04-22 17:28 | 46.27838 | 14.32937 | 11542 ft | 312 kts | 298° |
| 2026-04-22 17:28 | 46.28803 | 14.30053 | 12098 ft | 324 kts | 302° |
| 2026-04-22 17:28 | 46.29865 | 14.27163 | 12854 ft | 329 kts | 303° |
| 2026-04-22 17:28 | 46.30973 | 14.24284 | 13637 ft | 333 kts | 304° |
| 2026-04-22 17:29 | 46.32135 | 14.21344 | 14376 ft | 338 kts | 304° |
| 2026-04-22 17:29 | 46.33315 | 14.18403 | 15107 ft | 342 kts | 305° |
| 2026-04-22 17:29 | 46.34516 | 14.15430 | 15835 ft | 346 kts | 305° |
| 2026-04-22 17:29 | 46.35740 | 14.12411 | 16543 ft | 350 kts | 305° |
| 2026-04-22 17:30 | 46.36966 | 14.09389 | 17243 ft | 354 kts | 305° |
| 2026-04-22 17:30 | 46.38218 | 14.06304 | 17922 ft | 357 kts | 305° |
| 2026-04-22 17:30 | 46.39470 | 14.03219 | 18583 ft | 361 kts | 305° |
| 2026-04-22 17:30 | 46.40739 | 14.00088 | 19254 ft | 364 kts | 305° |
| 2026-04-22 17:31 | 46.42051 | 13.96924 | 19926 ft | 365 kts | 308° |
| 2026-04-22 17:31 | 46.43742 | 13.94464 | 20502 ft | 359 kts | 331° |
| 2026-04-22 17:31 | 46.46052 | 13.93131 | 21189 ft | 355 kts | 347° |
| 2026-04-22 17:31 | 46.48411 | 13.92121 | 21815 ft | 358 kts | 345° |
| 2026-04-22 17:32 | 46.50800 | 13.91014 | 22415 ft | 362 kts | 344° |
| 2026-04-22 17:32 | 46.53195 | 13.89863 | 22977 ft | 366 kts | 344° |
| 2026-04-22 17:32 | 46.55622 | 13.88675 | 23399 ft | 373 kts | 343° |
| 2026-04-22 17:32 | 46.58105 | 13.87445 | 23924 ft | 377 kts | 343° |
| 2026-04-22 17:33 | 46.59743 | 13.86628 | 24280 ft | 379 kts | 343° |
| 2026-04-22 17:33 | 46.63057 | 13.84966 | 24943 ft | 382 kts | 343° |
| 2026-04-22 17:33 | 46.65595 | 13.83688 | 25445 ft | 385 kts | 343° |
| 2026-04-22 17:33 | 46.68095 | 13.82427 | 25896 ft | 388 kts | 343° |
| 2026-04-22 17:34 | 46.70600 | 13.81160 | 26329 ft | 390 kts | 342° |
| 2026-04-22 17:34 | 46.73181 | 13.79851 | 26780 ft | 392 kts | 343° |
| 2026-04-22 17:34 | 46.75731 | 13.78557 | 27202 ft | 395 kts | 343° |
| 2026-04-22 17:34 | 46.78352 | 13.77226 | 27628 ft | 397 kts | 342° |
| 2026-04-22 17:35 | 46.80941 | 13.75910 | 28037 ft | 399 kts | 343° |
| 2026-04-22 17:35 | 46.83596 | 13.74558 | 28412 ft | 402 kts | 342° |
| 2026-04-22 17:35 | 46.86219 | 13.73222 | 28785 ft | 405 kts | 342° |
| 2026-04-22 17:35 | 46.88889 | 13.71861 | 29166 ft | 407 kts | 342° |
| 2026-04-22 17:36 | 46.91566 | 13.70495 | 29538 ft | 409 kts | 342° |
| 2026-04-22 17:36 | 46.94268 | 13.69114 | 29899 ft | 411 kts | 342° |
| 2026-04-22 17:36 | 46.96949 | 13.67742 | 30230 ft | 414 kts | 342° |
| 2026-04-22 17:36 | 46.99662 | 13.66351 | 30659 ft | 413 kts | 342° |
| 2026-04-22 17:37 | 47.02359 | 13.64967 | 31123 ft | 412 kts | 342° |
| 2026-04-22 17:37 | 47.05048 | 13.63586 | 31523 ft | 411 kts | 342° |
| 2026-04-22 17:37 | 47.07735 | 13.62205 | 31902 ft | 410 kts | 342° |
| 2026-04-22 17:37 | 47.10427 | 13.60818 | 32247 ft | 410 kts | 342° |
| 2026-04-22 17:38 | 47.13102 | 13.59439 | 32556 ft | 410 kts | 342° |
| 2026-04-22 17:38 | 47.15811 | 13.58043 | 32863 ft | 410 kts | 342° |
| 2026-04-22 17:38 | 47.18505 | 13.56653 | 33161 ft | 410 kts | 343° |
| 2026-04-22 17:38 | 47.21179 | 13.55271 | 33471 ft | 410 kts | 343° |
| 2026-04-22 17:39 | 47.23846 | 13.53892 | 33759 ft | 410 kts | 343° |
| 2026-04-22 17:39 | 47.26543 | 13.52496 | 34024 ft | 410 kts | 343° |
| 2026-04-22 17:39 | 47.31921 | 13.49709 | 34677 ft | 410 kts | 343° |
| 2026-04-22 17:40 | 47.34583 | 13.48328 | 35010 ft | 409 kts | 342° |
| 2026-04-22 17:40 | 47.37275 | 13.46929 | 35327 ft | 410 kts | 343° |
| 2026-04-22 17:40 | 47.39929 | 13.45547 | 35620 ft | 410 kts | 342° |
| 2026-04-22 17:40 | 47.42613 | 13.44148 | 35907 ft | 410 kts | 342° |
| 2026-04-22 17:41 | 47.45303 | 13.42745 | 36192 ft | 410 kts | 342° |
| 2026-04-22 17:41 | 47.47998 | 13.41338 | 36445 ft | 411 kts | 342° |
| 2026-04-22 17:41 | 47.50704 | 13.39924 | 36665 ft | 412 kts | 342° |
| 2026-04-22 17:41 | 47.53381 | 13.38523 | 36845 ft | 415 kts | 342° |
| 2026-04-22 17:42 | 47.56097 | 13.37099 | 37035 ft | 416 kts | 342° |
| 2026-04-22 17:42 | 47.58860 | 13.35650 | 37231 ft | 418 kts | 342° |
| 2026-04-22 17:42 | 47.60654 | 13.34708 | 37357 ft | 419 kts | 342° |
| 2026-04-22 17:42 | 47.64352 | 13.32764 | 37608 ft | 420 kts | 342° |
| 2026-04-22 17:43 | 47.67081 | 13.31327 | 37784 ft | 421 kts | 342° |
| 2026-04-22 17:43 | 47.69845 | 13.29872 | 37948 ft | 423 kts | 342° |
| 2026-04-22 17:43 | 47.72628 | 13.28404 | 38112 ft | 424 kts | 342° |
| 2026-04-22 17:43 | 47.75413 | 13.26933 | 38249 ft | 425 kts | 342° |
| 2026-04-22 17:44 | 47.78193 | 13.25463 | 38271 ft | 426 kts | 342° |
| 2026-04-22 17:44 | 47.83785 | 13.22500 | 38274 ft | 427 kts | 342° |
| 2026-04-22 17:45 | 47.89361 | 13.19539 | 38283 ft | 428 kts | 342° |
| 2026-04-22 17:45 | 47.94961 | 13.16563 | 38284 ft | 428 kts | 342° |
| 2026-04-22 17:46 | 48.00566 | 13.13574 | 38276 ft | 429 kts | 342° |
| 2026-04-22 17:46 | 48.06129 | 13.10603 | 38277 ft | 428 kts | 342° |
| 2026-04-22 17:47 | 48.11755 | 13.07593 | 38276 ft | 429 kts | 342° |
| 2026-04-22 17:47 | 48.17357 | 13.04543 | 38273 ft | 429 kts | 340° |
| 2026-04-22 17:48 | 48.21868 | 13.01545 | 38276 ft | 430 kts | 335° |
| 2026-04-22 17:48 | 48.27908 | 12.96293 | 38274 ft | 431 kts | 329° |
| 2026-04-22 17:49 | 48.32839 | 12.91103 | 38272 ft | 431 kts | 327° |
| 2026-04-22 17:49 | 48.37690 | 12.85905 | 38272 ft | 432 kts | 327° |
| 2026-04-22 17:50 | 48.42584 | 12.80651 | 38275 ft | 433 kts | 327° |
| 2026-04-22 17:50 | 48.47454 | 12.75415 | 38277 ft | 433 kts | 327° |
| 2026-04-22 17:51 | 48.52343 | 12.70148 | 38277 ft | 433 kts | 327° |
| 2026-04-22 17:51 | 48.57222 | 12.64878 | 38281 ft | 433 kts | 327° |
| 2026-04-22 17:52 | 48.62108 | 12.59590 | 38283 ft | 433 kts | 327° |
| 2026-04-22 17:52 | 48.67008 | 12.54272 | 38288 ft | 434 kts | 327° |
| 2026-04-22 17:53 | 48.71880 | 12.48972 | 38288 ft | 434 kts | 327° |
| 2026-04-22 17:53 | 48.76759 | 12.43652 | 38289 ft | 434 kts | 327° |
| 2026-04-22 17:54 | 48.81630 | 12.38329 | 38292 ft | 434 kts | 327° |
| 2026-04-22 17:54 | 48.86511 | 12.32981 | 38290 ft | 435 kts | 327° |
| 2026-04-22 17:55 | 48.90619 | 12.28471 | 38291 ft | 435 kts | 327° |
| 2026-04-22 17:55 | 48.96326 | 12.22185 | 38293 ft | 435 kts | 327° |
| 2026-04-22 17:55 | 48.98789 | 12.19467 | 38065 ft | 437 kts | 327° |
| 2026-04-22 17:56 | 49.01231 | 12.16767 | 37614 ft | 436 kts | 327° |
| 2026-04-22 17:56 | 49.03677 | 12.14061 | 37157 ft | 436 kts | 327° |
| 2026-04-22 17:56 | 49.06127 | 12.11348 | 36706 ft | 436 kts | 327° |
| 2026-04-22 17:56 | 49.08558 | 12.08653 | 36251 ft | 436 kts | 327° |
| 2026-04-22 17:57 | 49.11006 | 12.05935 | 35818 ft | 436 kts | 328° |
| 2026-04-22 17:57 | 49.13438 | 12.03230 | 35385 ft | 437 kts | 328° |
| 2026-04-22 17:57 | 49.15911 | 12.00479 | 34940 ft | 438 kts | 328° |
| 2026-04-22 17:57 | 49.18358 | 11.97754 | 34500 ft | 440 kts | 328° |
| 2026-04-22 17:58 | 49.20825 | 11.95003 | 34101 ft | 441 kts | 328° |
| 2026-04-22 17:58 | 49.23304 | 11.92233 | 33722 ft | 443 kts | 328° |
| 2026-04-22 17:58 | 49.25803 | 11.89440 | 33332 ft | 445 kts | 328° |
| 2026-04-22 17:58 | 49.28302 | 11.86642 | 32941 ft | 447 kts | 328° |
| 2026-04-22 17:59 | 49.30810 | 11.83831 | 32462 ft | 449 kts | 328° |
| 2026-04-22 17:59 | 49.33304 | 11.81031 | 31981 ft | 451 kts | 328° |
| 2026-04-22 17:59 | 49.35829 | 11.78190 | 31489 ft | 446 kts | 328° |
| 2026-04-22 17:59 | 49.38323 | 11.75381 | 30985 ft | 444 kts | 329° |
| 2026-04-22 18:00 | 49.39966 | 11.73531 | 30617 ft | 445 kts | 329° |
| 2026-04-22 18:00 | 49.43266 | 11.69812 | 29880 ft | 444 kts | 328° |
| 2026-04-22 18:00 | 49.45745 | 11.67010 | 29413 ft | 439 kts | 328° |
| 2026-04-22 18:00 | 49.48198 | 11.64235 | 29299 ft | 438 kts | 328° |
| 2026-04-22 18:01 | 49.50656 | 11.61453 | 29298 ft | 440 kts | 328° |
| 2026-04-22 18:01 | 49.55513 | 11.55783 | 29300 ft | 443 kts | 325° |
| 2026-04-22 18:02 | 49.60036 | 11.49318 | 29299 ft | 446 kts | 319° |
| 2026-04-22 18:02 | 49.64507 | 11.42729 | 29294 ft | 440 kts | 329° |
| 2026-04-22 18:03 | 49.69883 | 11.38725 | 29304 ft | 429 kts | 348° |
| 2026-04-22 18:03 | 49.75639 | 11.36521 | 29299 ft | 425 kts | 356° |
| 2026-04-22 18:04 | 49.81475 | 11.35525 | 29258 ft | 424 kts | 359° |
| 2026-04-22 18:04 | 49.84409 | 11.35064 | 28993 ft | 423 kts | 359° |
| 2026-04-22 18:04 | 49.87319 | 11.34586 | 28726 ft | 421 kts | 358° |
| 2026-04-22 18:04 | 49.90236 | 11.34089 | 28459 ft | 419 kts | 358° |
| 2026-04-22 18:05 | 49.93130 | 11.33582 | 28192 ft | 418 kts | 358° |
| 2026-04-22 18:05 | 49.95983 | 11.33076 | 27927 ft | 416 kts | 358° |
| 2026-04-22 18:05 | 49.98875 | 11.32559 | 27661 ft | 414 kts | 358° |
| 2026-04-22 18:05 | 50.01716 | 11.32049 | 27397 ft | 413 kts | 357° |
| 2026-04-22 18:06 | 50.04536 | 11.31538 | 27130 ft | 411 kts | 357° |
| 2026-04-22 18:06 | 50.07383 | 11.31023 | 26862 ft | 409 kts | 357° |
| 2026-04-22 18:06 | 50.10197 | 11.30513 | 26594 ft | 408 kts | 357° |
| 2026-04-22 18:06 | 50.12999 | 11.30004 | 26330 ft | 406 kts | 357° |
| 2026-04-22 18:07 | 50.14872 | 11.29663 | 26154 ft | 405 kts | 357° |
| 2026-04-22 18:07 | 50.18581 | 11.28986 | 25794 ft | 402 kts | 357° |
| 2026-04-22 18:07 | 50.21331 | 11.28485 | 25526 ft | 400 kts | 357° |
| 2026-04-22 18:07 | 50.24111 | 11.27976 | 25251 ft | 398 kts | 357° |
| 2026-04-22 18:08 | 50.26836 | 11.27478 | 24976 ft | 397 kts | 357° |
| 2026-04-22 18:08 | 50.29554 | 11.27169 | 24695 ft | 390 kts | 7° |
| 2026-04-22 18:08 | 50.32119 | 11.28243 | 24417 ft | 379 kts | 29° |
| 2026-04-22 18:08 | 50.34251 | 11.30571 | 24153 ft | 374 kts | 42° |
| 2026-04-22 18:09 | 50.36203 | 11.33205 | 23887 ft | 373 kts | 42° |
| 2026-04-22 18:09 | 50.38187 | 11.35863 | 23612 ft | 371 kts | 41° |
| 2026-04-22 18:09 | 50.40134 | 11.38444 | 23347 ft | 370 kts | 41° |
| 2026-04-22 18:09 | 50.42102 | 11.41036 | 23073 ft | 368 kts | 41° |
| 2026-04-22 18:10 | 50.44059 | 11.43598 | 22804 ft | 367 kts | 40° |
| 2026-04-22 18:10 | 50.46014 | 11.46152 | 22534 ft | 366 kts | 40° |
| 2026-04-22 18:10 | 50.47946 | 11.48669 | 22259 ft | 364 kts | 40° |
| 2026-04-22 18:10 | 50.49886 | 11.51198 | 21995 ft | 363 kts | 40° |
| 2026-04-22 18:11 | 50.51833 | 11.53735 | 21725 ft | 361 kts | 40° |
| 2026-04-22 18:11 | 50.53749 | 11.56233 | 21468 ft | 360 kts | 40° |
| 2026-04-22 18:11 | 50.55680 | 11.58752 | 21198 ft | 359 kts | 40° |
| 2026-04-22 18:11 | 50.57573 | 11.61224 | 20936 ft | 357 kts | 40° |
| 2026-04-22 18:12 | 50.59487 | 11.63727 | 20676 ft | 356 kts | 40° |
| 2026-04-22 18:12 | 50.61386 | 11.66213 | 20412 ft | 354 kts | 41° |
| 2026-04-22 18:12 | 50.62640 | 11.67858 | 20237 ft | 353 kts | 41° |
| 2026-04-22 18:12 | 50.65144 | 11.71142 | 19897 ft | 351 kts | 41° |
| 2026-04-22 18:13 | 50.66998 | 11.73578 | 19638 ft | 350 kts | 40° |
| 2026-04-22 18:13 | 50.68856 | 11.76018 | 19375 ft | 348 kts | 40° |
| 2026-04-22 18:13 | 50.70731 | 11.78484 | 19114 ft | 347 kts | 40° |
| 2026-04-22 18:13 | 50.72565 | 11.80898 | 18850 ft | 346 kts | 40° |
| 2026-04-22 18:14 | 50.74400 | 11.83317 | 18577 ft | 345 kts | 40° |
| 2026-04-22 18:14 | 50.76236 | 11.85737 | 18279 ft | 343 kts | 40° |
| 2026-04-22 18:14 | 50.78052 | 11.88126 | 17880 ft | 341 kts | 40° |
| 2026-04-22 18:14 | 50.79860 | 11.90509 | 17408 ft | 340 kts | 40° |
| 2026-04-22 18:15 | 50.81664 | 11.92896 | 16927 ft | 338 kts | 40° |
| 2026-04-22 18:15 | 50.83459 | 11.95275 | 16434 ft | 338 kts | 40° |
| 2026-04-22 18:15 | 50.85249 | 11.97654 | 15929 ft | 337 kts | 40° |
| 2026-04-22 18:15 | 50.87048 | 12.00046 | 15432 ft | 336 kts | 40° |
| 2026-04-22 18:16 | 50.88814 | 12.02398 | 14945 ft | 334 kts | 40° |
| 2026-04-22 18:16 | 50.90584 | 12.04758 | 14432 ft | 334 kts | 39° |
| 2026-04-22 18:16 | 50.92345 | 12.07108 | 13924 ft | 333 kts | 39° |
| 2026-04-22 18:16 | 50.94107 | 12.09463 | 13413 ft | 331 kts | 39° |
| 2026-04-22 18:17 | 50.95871 | 12.11822 | 12910 ft | 331 kts | 39° |
| 2026-04-22 18:17 | 50.97614 | 12.14155 | 12386 ft | 329 kts | 39° |
| 2026-04-22 18:17 | 50.99353 | 12.16487 | 11890 ft | 327 kts | 39° |
| 2026-04-22 18:17 | 51.01066 | 12.18797 | 11400 ft | 325 kts | 39° |
| 2026-04-22 18:18 | 51.02774 | 12.21122 | 10900 ft | 322 kts | 39° |
| 2026-04-22 18:18 | 51.04450 | 12.23409 | 10451 ft | 310 kts | 39° |
| 2026-04-22 18:18 | 51.06037 | 12.25577 | 9946 ft | 293 kts | 39° |
| 2026-04-22 18:18 | 51.07537 | 12.27593 | 9488 ft | 277 kts | 38° |
| 2026-04-22 18:19 | 51.08978 | 12.29519 | 9112 ft | 263 kts | 38° |
| 2026-04-22 18:19 | 51.10368 | 12.31379 | 8959 ft | 262 kts | 38° |
| 2026-04-22 18:19 | 51.11751 | 12.33235 | 8806 ft | 260 kts | 38° |
| 2026-04-22 18:19 | 51.13136 | 12.35099 | 8673 ft | 259 kts | 38° |
| 2026-04-22 18:20 | 51.14521 | 12.36965 | 8507 ft | 258 kts | 38° |
| 2026-04-22 18:20 | 51.15879 | 12.38800 | 8334 ft | 258 kts | 38° |
| 2026-04-22 18:20 | 51.17243 | 12.40644 | 8073 ft | 257 kts | 38° |
| 2026-04-22 18:20 | 51.18607 | 12.42492 | 7752 ft | 256 kts | 38° |
| 2026-04-22 18:21 | 51.19964 | 12.44331 | 7419 ft | 256 kts | 38° |
| 2026-04-22 18:21 | 51.21312 | 12.46160 | 7076 ft | 256 kts | 38° |
| 2026-04-22 18:21 | 51.22670 | 12.48003 | 6760 ft | 255 kts | 38° |
| 2026-04-22 18:21 | 51.24017 | 12.49833 | 6507 ft | 253 kts | 38° |
| 2026-04-22 18:22 | 51.25353 | 12.51650 | 6187 ft | 252 kts | 38° |
| 2026-04-22 18:22 | 51.26679 | 12.53460 | 5906 ft | 251 kts | 38° |
| 2026-04-22 18:22 | 51.28006 | 12.55283 | 5621 ft | 251 kts | 38° |
| 2026-04-22 18:22 | 51.29307 | 12.57083 | 5316 ft | 251 kts | 38° |
| 2026-04-22 18:23 | 51.30622 | 12.58911 | 4989 ft | 251 kts | 38° |
| 2026-04-22 18:23 | 51.32040 | 12.60488 | 4633 ft | 249 kts | 19° |
| 2026-04-22 18:23 | 51.33730 | 12.60912 | 4209 ft | 250 kts | 359° |
| 2026-04-22 18:24 | 51.37221 | 12.60535 | 3356 ft | 246 kts | 354° |
| 2026-04-22 18:24 | 51.38891 | 12.60304 | 3017 ft | 232 kts | 354° |
| 2026-04-22 18:24 | 51.41607 | 12.58685 | 2967 ft | 213 kts | 308° |
| 2026-04-22 18:25 | 51.42232 | 12.56524 | 2978 ft | 211 kts | 291° |
| 2026-04-22 18:25 | 51.42542 | 12.54295 | 2966 ft | 203 kts | 280° |
| 2026-04-22 18:25 | 51.42565 | 12.52073 | 2998 ft | 191 kts | 272° |
| 2026-04-22 18:26 | 51.42407 | 12.48194 | 2974 ft | 159 kts | 271° |
| 2026-04-22 18:26 | 51.42330 | 12.46517 | 2934 ft | 141 kts | 272° |
| 2026-04-22 18:26 | 51.42261 | 12.45001 | 2943 ft | 134 kts | 273° |
| 2026-04-22 18:26 | 51.42199 | 12.43514 | 2961 ft | 134 kts | 273° |
| 2026-04-22 18:27 | 51.42137 | 12.42022 | 2968 ft | 134 kts | 274° |
| 2026-04-22 18:27 | 51.42090 | 12.40509 | 2704 ft | 138 kts | 274° |
| 2026-04-22 18:27 | 51.42057 | 12.38979 | 2339 ft | 139 kts | 275° |
| 2026-04-22 18:27 | 51.42032 | 12.37409 | 1953 ft | 143 kts | 271° |
| 2026-04-22 18:28 | 51.41918 | 12.35863 | 1727 ft | 135 kts | 269° |
| 2026-04-22 18:28 | 51.41817 | 12.34422 | 1538 ft | 128 kts | 271° |
| 2026-04-22 18:28 | 51.41742 | 12.33003 | 1374 ft | 128 kts | 271° |
| 2026-04-22 18:28 | 51.41676 | 12.31572 | 1212 ft | 128 kts | 270° |
| 2026-04-22 18:29 | 51.41610 | 12.30161 | 1046 ft | 128 kts | 270° |
| 2026-04-22 18:29 | 51.41544 | 12.28737 | 871 ft | 127 kts | 269° |
| 2026-04-22 18:29 | 51.41478 | 12.27337 | 701 ft | 127 kts | 269° |
| 2026-04-22 18:29 | 51.41416 | 12.25959 | 521 ft | 122 kts | 268° |
| 2026-04-22 18:30 | 51.41360 | 12.24765 | 454 ft | 72 kts | 269° |
| 2026-04-22 18:30 | 51.41325 | 12.23903 | 461 ft | 32 kts | 266° |
| 2026-04-22 18:30 | 51.41318 | 12.23558 | 465 ft | 29 kts | 266° |
| 2026-04-22 18:31 | 51.41322 | 12.23292 | 467 ft | 13 kts | 295° |
| 2026-04-22 18:31 | 51.41404 | 12.23244 | 466 ft | 14 kts | 356° |
| 2026-04-22 18:31 | 51.41513 | 12.23230 | 464 ft | 16 kts | 354° |
| 2026-04-22 18:31 | 51.41612 | 12.23142 | 462 ft | 18 kts | 287° |
| 2026-04-22 18:32 | 51.41635 | 12.23011 | 462 ft | 18 kts | 286° |
| 2026-04-22 18:32 | 51.41683 | 12.22742 | 459 ft | 19 kts | 284° |
| 2026-04-22 18:32 | 51.41719 | 12.22529 | 459 ft | 19 kts | 285° |
| 2026-04-22 18:32 | 51.41758 | 12.22294 | 450 ft | 22 kts | 283° |
| 2026-04-22 18:33 | 51.41792 | 12.22094 | 441 ft | 20 kts | 286° |
| 2026-04-22 18:33 | 51.41834 | 12.21870 | 429 ft | 14 kts | 303° |
| 2026-04-22 18:33 | 51.41929 | 12.21876 | 431 ft | 13 kts | 14° |
| 2026-04-22 18:33 | 51.41935 | 12.21879 | 431 ft | 0 kts | 14° |